x

Buoy I01 - Eastern Maine Shelf (44034) Wave Buoy

12:04pm - Tue 23rd May 2017 All times are EDT. -4 hours from GMT.

  • Sig Wave height 2.3ft
  • Peak Period 5s
  • Wind
    2mph, 2mph gusts
  • Sea Temp 46°f
  • Air Temp 49°f
  • Sea Pressure 1010.7mb
  • Buoy I01 - Eastern Maine Shelf
  • Buoy I01 - Eastern Maine Shelf

More Historic Weather Station data

Upgrade to MSW Pro to gain access to the past 30 days of data for over 8000 Wavebouys and Weather Stations around the globe.

Join Pro

Comparision Forecast

View Surf forecast
   
Tue 05/23 12:04pm 2.5ft 5s 2 2 mph 1010.7mb 46f 49f
11:04am 2.5ft 5s 2 4 mph 1011.1mb 46f 48f
10:04am 2ft 5s 4 4 mph 1011.3mb 46f 47f
9:04am 2ft 4s 4 4 mph 1011.6mb 46f 47f
8:04am 2.5ft 5s 7 9 mph 1012mb 45f 47f
7:04am 2ft 4s 7 9 mph 1012.7mb 45f 47f
6:04am 2ft 4s 7 9 mph 1013mb 45f 47f
5:04am 2ft 4s 7 7 mph 1013.2mb 45f 47f
4:04am 2.5ft 4s 13 16 mph 1013.6mb 45f 47f
3:04am 1.6ft 4s 11 13 mph 1014.4mb 45f 46f
2:04am 1.3ft 4s 9 11 mph 1014.9mb 46f 46f
1:04am 1.3ft 4s 11 16 mph 1015.8mb 45f 46f
12:04am 1ft 4s 13 16 mph 1016.5mb 45f 46f
Mon 05/22 11:04pm 1ft 4s 9 11 mph 1017.5mb 44f 45f
10:04pm 1.3ft 8s 9 11 mph 1018.1mb 45f 45f
9:04pm 1.3ft 4s 9 11 mph 1018.4mb 46f 47f
8:04pm 1.3ft 4s 9 9 mph 1018.9mb 46f 47f
7:04pm 1.6ft 4s 9 11 mph 1018.7mb 46f 47f
6:04pm 1.6ft 4s 11 13 mph 1019.1mb 46f 48f
5:04pm 1.6ft 8s 11 13 mph 1019.4mb 46f 48f
4:04pm 1.3ft 3s 9 11 mph 1020.2mb 46f 48f
3:04pm 1ft 3s 11 13 mph 1020.5mb 46f 48f
2:04pm 1ft 4s 11 13 mph 1021.2mb 46f 48f
1:04pm 1ft 8s 7 7 mph 1021.8mb 47f 49f
12:04pm 1ft 8s 4 4 mph 1022.1mb 46f 51f
11:04am 1ft 8s 2 4 mph 1023mb 46f 50f
10:04am 0.7ft  -  7 7 mph 1023.1mb 46f 49f
9:04am 1ft 4s 11 13 mph 1023.1mb 46f 49f
8:04am 0.7ft  -  7 9 mph 1022.6mb 46f 48f
7:04am 1ft 3s 2 4 mph 1022.4mb 46f 48f
6:04am 0.7ft  -  4 7 mph 1022.5mb 46f 48f
5:04am 1ft 4s 2 4 mph 1022.1mb 46f 48f
4:04am 1ft 4s 7 9 mph 1022.1mb 46f 48f
3:04am 1.3ft 4s 9 11 mph 1022.4mb 46f 48f
2:04am 1ft 4s 11 16 mph 1022.4mb 46f 48f
1:04am 1.3ft 4s 7 7 mph 1022.8mb 46f 48f
12:04am 1.3ft 4s 2 4 mph 1023mb 46f 48f
Sun 05/21 11:04pm 1.3ft 5s 7 7 mph 1023.5mb 46f 49f
10:04pm 1.6ft 5s 7 9 mph 1023.9mb 46f 49f
9:04pm  -   -  11 13 mph 1023.9mb 46f 49f
8:04pm 2.5ft 4s 16 18 mph 1023.7mb 46f 50f
7:04pm 2.5ft 4s 13 16 mph 1023.4mb 46f 50f
6:04pm 1.6ft 4s 13 16 mph 1023.2mb 46f 51f
5:04pm 1.6ft 4s 13 16 mph 1023.4mb 46f 51f
4:04pm 1.6ft 3s 13 16 mph 1023.9mb 46f 51f
3:04pm 1ft 6s 13 16 mph 1024.5mb 46f 52f
2:04pm 1ft 6s 11 13 mph 1025.2mb 46f 52f
1:04pm 1ft 8s 9 11 mph 1026mb 47f 51f
12:04pm  -   -  7 7 mph 1026.9mb 47f 53f
11:04am 1ft 6s 7 7 mph 1027.1mb 46f 52f
10:04am 1.3ft 6s 2 4 mph 1027.3mb 45f 50f
9:04am 1.3ft 6s 9 11 mph 1027.7mb 46f 49f
8:04am 1ft 6s 7 7 mph 1027.8mb 46f 48f
7:04am 1.3ft 8s 11 13 mph 1027.6mb 46f 48f
6:04am 1.3ft 6s 11 13 mph 1027mb 46f 47f
5:04am 1ft 8s 7 9 mph 1026.8mb 45f 47f
4:04am 1ft 8s 7 7 mph 1026.8mb 46f 46f
3:04am  -   -  4 4 mph 1026.8mb 46f 47f
2:04am 1.3ft 8s 9 11 mph 1026.4mb 46f 49f
1:04am 1ft 2s 9 11 mph 1026.3mb 46f 49f
12:04am 1.3ft 6s 9 9 mph 1026.4mb 46f 49f
Sat 05/20 11:04pm 1.3ft 8s 9 9 mph 1025.9mb 46f 51f
10:04pm 1.3ft 8s 9 11 mph 1025.3mb 46f 51f
9:04pm 1.3ft 8s 9 9 mph 1024.8mb 46f 52f
8:04pm 1.6ft 8s 9 9 mph 1024mb 46f 52f
7:04pm 1.6ft 8s 7 11 mph 1023.3mb 47f 51f
6:04pm  -   -  11 13 mph 1022.7mb 47f 50f
5:04pm 1.3ft 8s 11 13 mph 1023.1mb 47f 51f
4:04pm  -   -  7 7 mph 1023.1mb 46f 50f
3:04pm 1.3ft 8s 7 9 mph 1023.2mb 47f 49f
2:04pm 1.6ft 8s 7 9 mph 1023.4mb 47f 50f
1:04pm 1.6ft 8s 4 4 mph 1023.5mb 47f 50f
12:04pm 2ft 8s 7 9 mph 1023.5mb 46f 49f
11:04am 2.5ft 8s 9 11 mph 1023.5mb 45f 48f
10:04am 2.5ft 4s 13 16 mph 1023.5mb 45f 48f
9:04am  -   -  16 18 mph 1023.4mb 45f 47f
8:04am 2.5ft 6s 13 16 mph 1022.8mb 45f 47f
7:04am  -   -  16 16 mph 1022mb 45f 47f
6:04am 2.5ft 6s 16 18 mph 1021.1mb 45f 48f
5:04am 2.5ft 6s 16 20 mph 1019.6mb 45f 48f
4:04am 2.5ft 6s 16 20 mph 1018.6mb 45f 49f
3:04am 2.5ft 6s 7 9 mph 1018.3mb 45f 49f
2:04am 2.5ft 6s 11 13 mph 1017.8mb 45f 49f
1:04am 2.5ft 6s 9 11 mph 1017.2mb 45f 49f
12:04am 2.5ft 6s 13 13 mph 1016.7mb 45f 49f
Fri 05/19 11:04pm 3.5ft 8s 13 16 mph 1015.7mb 44f 50f
10:04pm 3.5ft 6s 16 18 mph 1014.8mb 45f 51f
9:04pm 3.5ft 6s 13 16 mph 1013.2mb 44f 52f
8:04pm 4.5ft 6s 16 18 mph 1011.3mb 44f 53f
7:04pm 4ft 6s 13 16 mph 1009.8mb 45f 55f
6:04pm 3.5ft 6s 11 13 mph 1008.1mb 45f 56f